createdAt,value
2022-12-28T00:00:08.038Z,5.70
2022-12-28T00:01:07.892Z,5.69
2022-12-28T00:02:07.945Z,5.70
2022-12-28T00:03:07.929Z,5.70
2022-12-28T00:04:07.851Z,5.73
2022-12-28T00:05:07.848Z,5.70
2022-12-28T00:06:07.832Z,5.70
2022-12-28T00:07:07.863Z,5.70
2022-12-28T00:08:07.791Z,5.74
2022-12-28T00:09:07.773Z,5.74
2022-12-28T00:10:07.763Z,5.74
2022-12-28T00:11:11.391Z,5.74
2022-12-28T00:12:07.771Z,5.77
2022-12-28T00:13:07.733Z,5.75
2022-12-28T00:14:07.736Z,5.74
2022-12-28T00:15:07.724Z,5.80
2022-12-28T00:16:07.731Z,5.80
2022-12-28T00:17:07.701Z,5.80
2022-12-28T00:18:07.679Z,5.81
2022-12-28T00:19:07.672Z,5.83
2022-12-28T00:20:07.672Z,5.85
2022-12-28T00:21:07.648Z,5.85
2022-12-28T00:22:07.657Z,5.83
2022-12-28T00:23:07.617Z,5.83
2022-12-28T00:24:07.609Z,5.80
2022-12-28T00:25:07.609Z,5.77
2022-12-28T00:26:07.587Z,5.80
2022-12-28T00:27:07.594Z,5.78
2022-12-28T00:28:07.572Z,5.81
2022-12-28T00:29:07.564Z,5.83
2022-12-28T00:30:07.580Z,5.81
2022-12-28T00:31:07.573Z,5.81
2022-12-28T00:32:07.590Z,5.80
2022-12-28T00:33:07.521Z,5.80
2022-12-28T00:34:07.499Z,5.81
2022-12-28T00:35:07.490Z,5.83
2022-12-28T00:36:07.473Z,5.83
2022-12-28T00:37:12.612Z,5.88
2022-12-28T00:38:07.464Z,5.88
2022-12-28T00:39:07.458Z,5.90
2022-12-28T00:40:07.442Z,5.93
2022-12-28T00:41:07.431Z,5.95
2022-12-28T00:42:07.410Z,5.95
2022-12-28T00:43:07.413Z,5.93
2022-12-28T00:44:07.399Z,5.92
2022-12-28T00:45:07.389Z,5.90
2022-12-28T00:46:07.426Z,5.92
2022-12-28T00:47:07.360Z,5.90
2022-12-28T00:48:07.354Z,5.93
2022-12-28T00:49:07.347Z,5.96
2022-12-28T00:50:07.319Z,5.99
2022-12-28T00:51:07.311Z,6.02
2022-12-28T00:52:07.295Z,6.06
2022-12-28T00:53:07.293Z,6.08
2022-12-28T00:54:07.289Z,6.08
2022-12-28T00:55:07.266Z,6.06
2022-12-28T00:56:07.251Z,6.06
2022-12-28T00:57:07.252Z,6.06
2022-12-28T00:58:07.238Z,6.08
2022-12-28T00:59:07.226Z,6.10
2022-12-28T01:00:07.209Z,6.11
2022-12-28T01:01:07.325Z,6.10
2022-12-28T01:02:07.407Z,6.08
2022-12-28T01:03:07.208Z,6.10
2022-12-28T01:04:07.180Z,6.11
2022-12-28T01:05:07.157Z,6.14
2022-12-28T01:06:07.142Z,6.20
2022-12-28T01:07:07.150Z,6.24
2022-12-28T01:08:07.126Z,6.24
2022-12-28T01:09:07.111Z,6.21
2022-12-28T01:10:07.097Z,6.20
2022-12-28T01:11:07.094Z,6.24
2022-12-28T01:12:07.075Z,6.21
2022-12-28T01:13:07.083Z,6.19
2022-12-28T01:14:07.064Z,6.20
2022-12-28T01:15:07.052Z,6.19
2022-12-28T01:16:07.105Z,6.16
2022-12-28T01:17:07.023Z,6.13
2022-12-28T01:18:07.024Z,6.10
2022-12-28T01:19:07.017Z,6.08
2022-12-28T01:20:06.988Z,6.06
2022-12-28T01:21:06.988Z,6.05
2022-12-28T01:22:06.980Z,6.01
2022-12-28T01:23:07.057Z,5.99
2022-12-28T01:24:06.951Z,5.96
2022-12-28T01:25:06.937Z,5.95
2022-12-28T01:26:06.919Z,5.90
2022-12-28T01:27:06.923Z,5.96
2022-12-28T01:28:06.908Z,5.96
2022-12-28T01:29:06.893Z,5.92
2022-12-28T01:30:06.877Z,5.92
2022-12-28T01:31:06.881Z,5.88
2022-12-28T01:32:06.897Z,5.92
2022-12-28T01:33:06.857Z,5.95
2022-12-28T01:34:06.834Z,5.92
2022-12-28T01:35:06.821Z,5.90
2022-12-28T01:36:06.808Z,5.88
2022-12-28T01:37:06.806Z,5.87
2022-12-28T01:38:06.800Z,5.88
2022-12-28T01:39:06.802Z,5.87
2022-12-28T01:40:06.805Z,5.88
2022-12-28T01:41:06.764Z,5.87
2022-12-28T01:42:06.743Z,5.90
2022-12-28T01:43:06.755Z,5.90
2022-12-28T01:44:06.722Z,5.93
2022-12-28T01:45:06.725Z,5.99
2022-12-28T01:46:06.743Z,5.98
2022-12-28T01:47:06.690Z,5.98
2022-12-28T01:48:06.693Z,5.99
2022-12-28T01:49:06.679Z,6.02
2022-12-28T01:50:06.660Z,6.01
2022-12-28T01:51:06.645Z,6.01
2022-12-28T01:52:06.629Z,5.99
2022-12-28T01:53:06.636Z,5.96
2022-12-28T01:54:06.619Z,5.98
2022-12-28T01:55:06.609Z,5.99
2022-12-28T01:56:06.587Z,5.99
2022-12-28T01:57:06.583Z,5.96
2022-12-28T01:58:06.584Z,5.95
2022-12-28T01:59:06.583Z,6.01
2022-12-28T02:00:06.544Z,6.05
2022-12-28T02:01:06.652Z,6.05
2022-12-28T02:02:06.736Z,6.08
2022-12-28T02:03:06.541Z,6.08
2022-12-28T02:04:06.505Z,6.08
2022-12-28T02:05:06.490Z,6.06
2022-12-28T02:06:06.474Z,6.08
2022-12-28T02:07:06.489Z,6.08
2022-12-28T02:08:06.469Z,6.10
2022-12-28T02:09:06.456Z,6.08
2022-12-28T02:10:41.174Z,6.10
2022-12-28T02:11:06.440Z,6.11
2022-12-28T02:12:06.411Z,6.19
2022-12-28T02:13:06.453Z,6.20
2022-12-28T02:14:06.382Z,6.17
2022-12-28T02:15:06.384Z,6.17
2022-12-28T02:16:06.365Z,6.16
2022-12-28T02:17:06.445Z,6.17
2022-12-28T02:18:06.358Z,6.16
2022-12-28T02:19:06.333Z,6.11
2022-12-28T02:20:06.334Z,6.10
2022-12-28T02:21:06.309Z,6.06
2022-12-28T02:22:06.305Z,6.10
2022-12-28T02:23:06.336Z,6.11
2022-12-28T02:24:06.282Z,6.11
2022-12-28T02:25:12.926Z,6.11
2022-12-28T02:26:06.264Z,6.11
2022-12-28T02:27:06.244Z,6.11
2022-12-28T02:28:06.231Z,6.11
2022-12-28T02:29:06.227Z,6.13
2022-12-28T02:30:06.211Z,6.11
2022-12-28T02:31:06.248Z,6.11
2022-12-28T02:32:06.189Z,6.10
2022-12-28T02:33:06.180Z,6.13
2022-12-28T02:34:06.175Z,6.16
2022-12-28T02:35:06.151Z,6.19
2022-12-28T02:36:06.156Z,6.17
2022-12-28T02:37:06.130Z,6.19
2022-12-28T02:38:06.122Z,6.19
2022-12-28T02:39:06.133Z,6.19
2022-12-28T02:40:06.101Z,6.20
2022-12-28T02:41:06.088Z,6.20
2022-12-28T02:42:06.085Z,6.24
2022-12-28T02:43:06.063Z,6.24
2022-12-28T02:44:06.075Z,6.21
2022-12-28T02:45:06.046Z,6.21
2022-12-28T02:46:06.131Z,6.19
2022-12-28T02:47:06.018Z,6.17
2022-12-28T02:48:06.021Z,6.17
2022-12-28T02:49:06.016Z,6.16
2022-12-28T02:50:05.986Z,6.14
2022-12-28T02:51:05.982Z,6.14
2022-12-28T02:52:05.966Z,6.17
2022-12-28T02:53:05.953Z,6.17
2022-12-28T02:54:05.964Z,6.17
2022-12-28T02:55:05.944Z,6.17
2022-12-28T02:56:05.927Z,6.19
2022-12-28T02:57:05.907Z,6.16
2022-12-28T02:58:05.908Z,6.16
2022-12-28T02:59:05.897Z,6.19
2022-12-28T03:00:05.883Z,6.19
2022-12-28T03:01:05.940Z,6.20
2022-12-28T03:02:06.173Z,6.20
2022-12-28T03:03:05.956Z,6.21
2022-12-28T03:04:05.842Z,6.20
2022-12-28T03:05:05.818Z,6.19
2022-12-28T03:06:05.820Z,6.20
2022-12-28T03:07:05.811Z,6.17
2022-12-28T03:08:05.793Z,6.20
2022-12-28T03:09:05.781Z,6.24
2022-12-28T03:10:05.773Z,6.21
2022-12-28T03:11:05.749Z,6.21
2022-12-28T03:12:05.790Z,6.20
2022-12-28T03:13:05.730Z,6.21
2022-12-28T03:14:05.735Z,6.19
2022-12-28T03:15:05.709Z,6.20
2022-12-28T03:16:05.773Z,6.20
2022-12-28T03:17:05.693Z,6.24
2022-12-28T03:18:05.682Z,6.24
2022-12-28T03:19:05.671Z,6.27
2022-12-28T03:20:05.661Z,6.28
2022-12-28T03:21:05.640Z,6.28
2022-12-28T03:22:05.636Z,6.28
2022-12-28T03:23:05.622Z,6.30
2022-12-28T03:24:05.621Z,6.35
2022-12-28T03:25:05.596Z,6.35
2022-12-28T03:26:05.595Z,6.35
2022-12-28T03:27:05.574Z,6.35
2022-12-28T03:28:05.577Z,6.38
2022-12-28T03:29:05.568Z,6.40
2022-12-28T03:30:05.543Z,6.39
2022-12-28T03:31:05.585Z,6.43
2022-12-28T03:32:05.526Z,6.48
2022-12-28T03:33:05.515Z,6.50
2022-12-28T03:34:05.515Z,6.57
2022-12-28T03:35:05.489Z,6.64
2022-12-28T03:36:05.472Z,6.71
2022-12-28T03:37:05.472Z,6.71
2022-12-28T03:38:05.462Z,6.71
2022-12-28T03:39:05.461Z,6.68
2022-12-28T03:40:05.429Z,6.71
2022-12-28T03:41:05.429Z,6.75
2022-12-28T03:42:05.427Z,6.75
2022-12-28T03:43:05.403Z,6.79
2022-12-28T03:44:05.414Z,6.89
2022-12-28T03:45:05.388Z,6.90
2022-12-28T03:46:05.451Z,6.90
2022-12-28T03:47:05.359Z,6.93
2022-12-28T03:48:05.344Z,6.96
2022-12-28T03:49:05.344Z,7.01
2022-12-28T03:50:05.329Z,7.00
2022-12-28T03:51:05.320Z,7.00
2022-12-28T03:52:05.306Z,6.99
2022-12-28T03:53:05.298Z,6.97
2022-12-28T03:54:05.284Z,6.99
2022-12-28T03:55:05.313Z,6.96
2022-12-28T03:56:05.256Z,6.91
2022-12-28T03:57:05.249Z,6.87
2022-12-28T03:58:05.235Z,6.87
2022-12-28T03:59:05.230Z,6.89
2022-12-28T04:00:05.221Z,6.86
2022-12-28T04:01:05.228Z,6.87
2022-12-28T04:02:05.371Z,6.87
2022-12-28T04:03:05.254Z,6.90
2022-12-28T04:04:05.173Z,6.93
2022-12-28T04:05:05.170Z,6.91
2022-12-28T04:06:05.150Z,6.93
2022-12-28T04:07:05.141Z,6.90
2022-12-28T04:08:05.126Z,6.87
2022-12-28T04:09:05.121Z,6.83
2022-12-28T04:10:05.117Z,6.82
2022-12-28T04:11:05.114Z,6.82
2022-12-28T04:12:05.082Z,6.82
2022-12-28T04:13:05.077Z,6.82
2022-12-28T04:14:10.361Z,6.79
2022-12-28T04:15:05.082Z,6.79
2022-12-28T04:16:05.084Z,6.79
2022-12-28T04:17:05.038Z,6.78
2022-12-28T04:18:05.014Z,6.76
2022-12-28T04:19:05.017Z,6.76
2022-12-28T04:20:04.999Z,6.76
2022-12-28T04:21:05.006Z,6.79
2022-12-28T04:22:04.978Z,6.78
2022-12-28T04:23:04.965Z,6.78
2022-12-28T04:24:04.951Z,6.76
2022-12-28T04:25:04.954Z,6.73
2022-12-28T04:26:04.944Z,6.72
2022-12-28T04:27:04.924Z,6.69
2022-12-28T04:28:04.903Z,6.65
2022-12-28T04:29:04.915Z,6.64
2022-12-28T04:30:04.897Z,6.65
2022-12-28T04:31:04.930Z,6.65
2022-12-28T04:32:04.863Z,6.64
2022-12-28T04:33:04.862Z,6.64
2022-12-28T04:34:04.840Z,6.61
2022-12-28T04:35:04.841Z,6.60
2022-12-28T04:36:04.819Z,6.60
2022-12-28T04:37:04.812Z,6.58
2022-12-28T04:38:04.803Z,6.57
2022-12-28T04:39:04.792Z,6.55
2022-12-28T04:40:04.782Z,6.58
2022-12-28T04:41:04.772Z,6.57
2022-12-28T04:42:04.757Z,6.57
2022-12-28T04:43:04.757Z,6.57
2022-12-28T04:44:04.746Z,6.57
2022-12-28T04:45:04.735Z,6.55
2022-12-28T04:46:04.710Z,6.55
2022-12-28T04:47:04.703Z,6.55
2022-12-28T04:48:04.683Z,6.55
2022-12-28T04:49:04.692Z,6.57
2022-12-28T04:50:04.703Z,6.57
2022-12-28T04:51:04.665Z,6.58
2022-12-28T04:52:04.655Z,6.58
2022-12-28T04:53:04.641Z,6.58
2022-12-28T04:54:04.626Z,6.57
2022-12-28T04:55:04.617Z,6.55
2022-12-28T04:56:04.608Z,6.57
2022-12-28T04:57:04.593Z,6.57
2022-12-28T04:58:04.578Z,6.55
2022-12-28T04:59:04.572Z,6.55
2022-12-28T05:00:04.554Z,6.57
2022-12-28T05:01:04.671Z,6.57
2022-12-28T05:02:04.712Z,6.57
2022-12-28T05:03:04.909Z,6.58
2022-12-28T05:04:04.511Z,6.57
2022-12-28T05:05:04.526Z,6.58
2022-12-28T05:06:04.499Z,6.57
2022-12-28T05:07:04.484Z,6.58
2022-12-28T05:08:04.464Z,6.63
2022-12-28T05:09:04.476Z,6.63
2022-12-28T05:10:04.450Z,6.64
2022-12-28T05:11:04.447Z,6.60
2022-12-28T05:12:04.432Z,6.61
2022-12-28T05:13:04.417Z,6.63
2022-12-28T05:14:04.400Z,6.64
2022-12-28T05:15:04.396Z,6.63
2022-12-28T05:16:04.422Z,6.65
2022-12-28T05:17:04.374Z,6.65
2022-12-28T05:18:04.359Z,6.64
2022-12-28T05:19:04.353Z,6.63
2022-12-28T05:20:04.336Z,6.63
2022-12-28T05:21:04.337Z,6.63
2022-12-28T05:22:04.316Z,6.63
2022-12-28T05:23:04.329Z,6.64
2022-12-28T05:24:04.293Z,6.65
2022-12-28T05:25:04.282Z,6.65
2022-12-28T05:26:04.277Z,6.64
2022-12-28T05:27:04.260Z,6.65
2022-12-28T05:28:04.252Z,6.65
2022-12-28T05:29:04.242Z,6.68
2022-12-28T05:30:04.223Z,6.68
2022-12-28T05:31:04.295Z,6.69
2022-12-28T05:32:04.201Z,6.68
2022-12-28T05:33:04.194Z,6.69
2022-12-28T05:34:04.181Z,6.69
2022-12-28T05:35:04.180Z,6.71
2022-12-28T05:36:04.165Z,6.72
2022-12-28T05:37:04.159Z,6.72
2022-12-28T05:38:04.135Z,6.73
2022-12-28T05:39:04.129Z,6.73
2022-12-28T05:40:04.121Z,6.75
2022-12-28T05:41:04.131Z,6.76
2022-12-28T05:42:04.092Z,6.76
2022-12-28T05:43:04.084Z,6.76
2022-12-28T05:44:04.070Z,6.79
2022-12-28T05:45:04.065Z,6.79
2022-12-28T05:46:04.047Z,6.78
2022-12-28T05:47:04.105Z,6.79
2022-12-28T05:48:04.023Z,6.82
2022-12-28T05:49:04.027Z,6.82
2022-12-28T05:50:04.004Z,6.83
2022-12-28T05:51:04.002Z,6.82
2022-12-28T05:52:04.011Z,6.83
2022-12-28T05:53:04.010Z,6.87
2022-12-28T05:54:03.956Z,6.86
2022-12-28T05:55:03.959Z,6.83
2022-12-28T05:56:03.936Z,6.87
2022-12-28T05:57:03.957Z,6.89
2022-12-28T05:58:03.923Z,6.87
2022-12-28T05:59:03.914Z,6.89
2022-12-28T06:00:03.896Z,6.89
2022-12-28T06:01:03.929Z,6.90
2022-12-28T06:02:04.041Z,6.91
2022-12-28T06:03:04.024Z,6.91
2022-12-28T06:04:03.853Z,6.90
2022-12-28T06:05:03.840Z,6.89
2022-12-28T06:06:03.827Z,6.90
2022-12-28T06:07:03.832Z,6.89
2022-12-28T06:08:03.804Z,6.93
2022-12-28T06:09:03.841Z,6.93
2022-12-28T06:10:03.787Z,6.96
2022-12-28T06:11:03.776Z,6.94
2022-12-28T06:12:03.772Z,6.93
2022-12-28T06:13:03.760Z,6.93
2022-12-28T06:14:03.813Z,6.94
2022-12-28T06:15:03.735Z,6.94
2022-12-28T06:16:03.753Z,6.94
2022-12-28T06:17:03.718Z,6.94
2022-12-28T06:18:03.698Z,6.96
2022-12-28T06:19:03.691Z,6.96
2022-12-28T06:20:03.667Z,7.00
2022-12-28T06:21:03.666Z,6.99
2022-12-28T06:22:03.661Z,7.00
2022-12-28T06:23:03.642Z,7.00
2022-12-28T06:24:03.632Z,6.99
2022-12-28T06:25:03.620Z,7.00
2022-12-28T06:26:03.610Z,7.00
2022-12-28T06:27:03.606Z,7.01
2022-12-28T06:28:03.579Z,7.01
2022-12-28T06:29:03.579Z,7.04
2022-12-28T06:30:03.563Z,7.04
2022-12-28T06:31:03.548Z,7.05
2022-12-28T06:32:03.629Z,7.07
2022-12-28T06:33:03.528Z,7.09
2022-12-28T06:34:03.522Z,7.11
2022-12-28T06:35:03.515Z,7.11
2022-12-28T06:36:03.494Z,7.11
2022-12-28T06:37:03.498Z,7.09
2022-12-28T06:38:03.472Z,7.09
2022-12-28T06:39:03.493Z,7.11
2022-12-28T06:40:03.466Z,7.14
2022-12-28T06:41:13.548Z,7.12
2022-12-28T06:42:03.441Z,7.14
2022-12-28T06:43:03.422Z,7.15
2022-12-28T06:44:03.416Z,7.16
2022-12-28T06:45:03.402Z,7.15
2022-12-28T06:46:03.444Z,7.16
2022-12-28T06:47:03.389Z,7.18
2022-12-28T06:48:03.361Z,7.19
2022-12-28T06:49:03.357Z,7.19
2022-12-28T06:50:03.339Z,7.19
2022-12-28T06:51:03.337Z,7.19
2022-12-28T06:52:03.325Z,7.19
2022-12-28T06:53:03.314Z,7.23
2022-12-28T06:54:03.307Z,7.23
2022-12-28T06:55:03.292Z,7.23
2022-12-28T06:56:03.279Z,7.23
2022-12-28T06:57:03.307Z,7.21
2022-12-28T06:58:03.258Z,7.24
2022-12-28T06:59:04.306Z,7.26
2022-12-28T07:00:03.229Z,7.24
2022-12-28T07:01:03.340Z,7.26
2022-12-28T07:02:03.432Z,7.26
2022-12-28T07:03:03.230Z,7.26
2022-12-28T07:04:03.208Z,7.27
2022-12-28T07:05:03.185Z,7.26
2022-12-28T07:06:03.165Z,7.27
2022-12-28T07:07:03.172Z,7.27
2022-12-28T07:08:07.698Z,7.29
2022-12-28T07:09:03.152Z,7.27
2022-12-28T07:10:03.134Z,7.29
2022-12-28T07:11:03.114Z,7.30
2022-12-28T07:12:03.109Z,7.30
2022-12-28T07:13:03.093Z,7.33
2022-12-28T07:14:03.080Z,7.33
2022-12-28T07:15:03.097Z,7.33
2022-12-28T07:16:03.065Z,7.32
2022-12-28T07:17:03.055Z,7.33
2022-12-28T07:18:03.031Z,7.33
2022-12-28T07:19:03.045Z,7.34
2022-12-28T07:20:03.008Z,7.34
2022-12-28T07:21:03.016Z,7.34
2022-12-28T07:22:03.003Z,7.33
2022-12-28T07:23:02.983Z,7.33
2022-12-28T07:24:02.981Z,7.32
2022-12-28T07:25:02.962Z,7.33
2022-12-28T07:26:02.945Z,7.34
2022-12-28T07:27:02.945Z,7.33
2022-12-28T07:28:02.931Z,7.33
2022-12-28T07:29:02.932Z,7.36
2022-12-28T07:30:02.902Z,7.34
2022-12-28T07:31:02.927Z,7.34
2022-12-28T07:32:02.885Z,7.36
2022-12-28T07:33:02.876Z,7.36
2022-12-28T07:34:02.857Z,7.36
2022-12-28T07:35:02.849Z,7.37
2022-12-28T07:36:02.833Z,7.36
2022-12-28T07:37:02.842Z,7.37
2022-12-28T07:38:02.817Z,7.34
2022-12-28T07:39:02.809Z,7.36
2022-12-28T07:40:02.820Z,7.36
2022-12-28T07:41:02.783Z,7.36
2022-12-28T07:42:02.794Z,7.37
2022-12-28T07:43:02.772Z,7.34
2022-12-28T07:44:02.744Z,7.36
2022-12-28T07:45:02.748Z,7.39
2022-12-28T07:46:02.776Z,7.39
2022-12-28T07:47:02.718Z,7.41
2022-12-28T07:48:02.713Z,7.41
2022-12-28T07:49:02.702Z,7.39
2022-12-28T07:50:02.687Z,7.39
2022-12-28T07:51:02.674Z,7.39
2022-12-28T07:52:02.659Z,7.42
2022-12-28T07:53:02.662Z,7.42
2022-12-28T07:54:02.641Z,7.45
2022-12-28T07:55:02.633Z,7.42
2022-12-28T07:56:02.613Z,7.42
2022-12-28T07:57:02.613Z,7.44
2022-12-28T07:58:02.601Z,7.44
2022-12-28T07:59:02.645Z,7.44
2022-12-28T08:00:02.573Z,7.45
2022-12-28T08:01:02.723Z,7.45
2022-12-28T08:02:02.683Z,7.44
2022-12-28T08:03:02.548Z,7.47
2022-12-28T08:04:02.695Z,7.48
2022-12-28T08:05:02.537Z,7.50
2022-12-28T08:06:02.515Z,7.50
2022-12-28T08:07:02.500Z,7.51
2022-12-28T08:08:03.826Z,7.50
2022-12-28T08:09:02.487Z,7.50
2022-12-28T08:10:02.461Z,7.50
2022-12-28T08:11:02.454Z,7.50
2022-12-28T08:12:02.442Z,7.50
2022-12-28T08:13:02.441Z,7.50
2022-12-28T08:14:02.441Z,7.51
2022-12-28T08:15:02.409Z,7.52
2022-12-28T08:16:02.455Z,7.51
2022-12-28T08:17:02.389Z,7.52
2022-12-28T08:18:02.385Z,7.54
2022-12-28T08:19:02.383Z,7.51
2022-12-28T08:20:02.352Z,7.52
2022-12-28T08:21:02.346Z,7.51
2022-12-28T08:22:02.337Z,7.51
2022-12-28T08:23:02.329Z,7.51
2022-12-28T08:24:02.314Z,7.52
2022-12-28T08:25:02.298Z,7.52
2022-12-28T08:26:02.282Z,7.55
2022-12-28T08:27:02.278Z,7.55
2022-12-28T08:28:02.270Z,7.54
2022-12-28T08:29:02.265Z,7.54
2022-12-28T08:30:02.236Z,7.55
2022-12-28T08:31:02.289Z,7.58
2022-12-28T08:32:02.225Z,7.58
2022-12-28T08:33:02.229Z,7.60
2022-12-28T08:34:02.195Z,7.58
